createdAt,value
2018-02-25T00:01:18.937Z,99.50
2018-02-25T00:03:45.239Z,99.50
2018-02-25T00:06:11.372Z,99.90
2018-02-25T00:08:37.835Z,99.90
2018-02-25T00:11:04.876Z,99.90
2018-02-25T00:13:31.145Z,99.90
2018-02-25T00:15:59.342Z,99.90
2018-02-25T00:18:25.514Z,99.90
2018-02-25T00:20:51.734Z,99.90
2018-02-25T00:23:17.993Z,99.90
2018-02-25T00:25:44.245Z,99.90
2018-02-25T00:28:10.411Z,99.90
2018-02-25T00:30:37.543Z,99.90
2018-02-25T00:33:03.780Z,99.90
2018-02-25T00:35:29.965Z,99.90
2018-02-25T00:37:56.264Z,99.90
2018-02-25T00:40:23.274Z,99.90
2018-02-25T00:42:49.447Z,99.90
2018-02-25T00:45:15.767Z,99.90
2018-02-25T00:47:42.254Z,99.90
2018-02-25T00:50:08.525Z,99.90
2018-02-25T00:52:35.456Z,99.90
2018-02-25T00:55:02.676Z,99.90
2018-02-25T00:57:29.011Z,99.90
2018-02-25T00:59:55.288Z,99.90
2018-02-25T01:02:21.551Z,99.90
2018-02-25T01:04:47.901Z,99.90
2018-02-25T01:07:14.221Z,99.90
2018-02-25T01:09:40.491Z,99.90
2018-02-25T01:12:06.769Z,99.90
2018-02-25T01:14:33.319Z,99.90
2018-02-25T01:16:59.672Z,99.90
2018-02-25T01:19:26.728Z,99.90
2018-02-25T01:21:53.688Z,99.90
2018-02-25T01:24:19.964Z,99.90
2018-02-25T01:26:46.354Z,99.90
2018-02-25T01:29:12.743Z,99.90
2018-02-25T01:31:39.760Z,99.90
2018-02-25T01:34:06.042Z,99.90
2018-02-25T01:36:32.253Z,99.90
2018-02-25T01:38:59.369Z,99.90
2018-02-25T01:41:26.185Z,99.90
2018-02-25T01:43:52.932Z,99.90
2018-02-25T01:46:19.365Z,99.90
2018-02-25T01:48:45.694Z,99.90
2018-02-25T01:51:12.033Z,99.90
2018-02-25T01:53:38.271Z,99.90
2018-02-25T01:56:05.944Z,99.90
2018-02-25T01:58:32.910Z,99.90
2018-02-25T02:00:59.289Z,99.90
2018-02-25T02:03:25.534Z,99.90
2018-02-25T02:05:51.852Z,99.90
2018-02-25T02:08:17.990Z,99.90
2018-02-25T02:10:45.036Z,99.90
2018-02-25T02:13:11.988Z,99.90
2018-02-25T02:15:38.933Z,99.90
2018-02-25T02:18:05.999Z,99.90
2018-02-25T02:20:32.191Z,99.90
2018-02-25T02:22:59.235Z,99.90
2018-02-25T02:25:26.206Z,99.90
2018-02-25T02:27:53.179Z,99.90
2018-02-25T02:30:19.512Z,99.90
2018-02-25T02:32:45.877Z,99.90
2018-02-25T02:35:12.958Z,99.90
2018-02-25T02:37:39.262Z,99.90
2018-02-25T02:40:06.195Z,99.90
2018-02-25T02:42:32.541Z,99.90
2018-02-25T02:44:59.597Z,99.90
2018-02-25T02:47:26.535Z,99.90
2018-02-25T02:49:53.561Z,99.90
2018-02-25T02:52:21.293Z,99.90
2018-02-25T02:54:47.508Z,99.90
2018-02-25T02:57:13.736Z,99.90
2018-02-25T02:59:39.965Z,99.90
2018-02-25T03:02:06.170Z,99.90
2018-02-25T03:04:32.601Z,99.90
2018-02-25T03:06:58.862Z,99.90
2018-02-25T03:09:25.126Z,99.90
2018-02-25T03:11:52.131Z,99.90
2018-02-25T03:14:18.307Z,99.90
2018-02-25T03:16:45.290Z,99.90
2018-02-25T03:19:11.630Z,99.90
2018-02-25T03:21:37.956Z,99.90
2018-02-25T03:24:04.333Z,99.90
2018-02-25T03:26:31.402Z,99.90
2018-02-25T03:28:57.671Z,99.90
2018-02-25T03:31:23.991Z,99.90
2018-02-25T03:33:50.323Z,99.90
2018-02-25T03:36:16.496Z,99.90
2018-02-25T03:38:42.721Z,99.90
2018-02-25T03:41:09.046Z,99.90
2018-02-25T03:43:35.333Z,99.90
2018-02-25T03:46:01.502Z,99.90
2018-02-25T03:48:27.826Z,99.90
2018-02-25T03:50:54.750Z,99.90
2018-02-25T03:53:21.037Z,99.90
2018-02-25T03:55:47.348Z,99.90
2018-02-25T03:58:13.554Z,99.90
2018-02-25T04:00:40.628Z,99.90
2018-02-25T04:03:07.980Z,99.90
2018-02-25T04:05:34.255Z,99.90
2018-02-25T04:08:01.190Z,99.90
2018-02-25T04:10:27.386Z,99.90
2018-02-25T04:12:53.545Z,99.90
2018-02-25T04:15:19.905Z,99.90
2018-02-25T04:17:46.944Z,99.90
2018-02-25T04:20:14.045Z,99.90
2018-02-25T04:22:40.376Z,99.90
2018-02-25T04:25:06.807Z,99.90
2018-02-25T04:27:33.171Z,99.90
2018-02-25T04:29:59.410Z,99.90
2018-02-25T04:32:26.513Z,99.90
2018-02-25T04:34:52.737Z,99.90
2018-02-25T04:37:18.995Z,99.90
2018-02-25T04:39:46.076Z,99.90
2018-02-25T04:42:12.398Z,99.90
2018-02-25T04:44:38.591Z,99.90
2018-02-25T04:47:05.604Z,99.90
2018-02-25T04:49:31.814Z,99.90
2018-02-25T04:51:58.060Z,99.90
2018-02-25T04:54:24.342Z,99.90
2018-02-25T04:56:50.607Z,99.90
2018-02-25T04:59:16.849Z,99.90
2018-02-25T05:01:43.031Z,99.90
2018-02-25T05:04:09.359Z,99.90
2018-02-25T05:06:35.677Z,99.90
2018-02-25T05:09:01.895Z,99.90
2018-02-25T05:11:29.003Z,99.90
2018-02-25T05:13:55.206Z,99.90
2018-02-25T05:16:21.431Z,99.90
2018-02-25T05:18:48.111Z,99.90
2018-02-25T05:21:14.513Z,99.90
2018-02-25T05:23:40.761Z,99.90
2018-02-25T05:26:08.528Z,99.90
2018-02-25T05:28:34.655Z,99.90
2018-02-25T05:31:01.664Z,99.90
2018-02-25T05:33:27.951Z,99.90
2018-02-25T05:35:54.236Z,99.90
2018-02-25T05:38:20.510Z,99.90
2018-02-25T05:40:46.715Z,99.90
2018-02-25T05:43:13.608Z,99.90
2018-02-25T05:45:40.018Z,99.90
2018-02-25T05:48:06.300Z,99.90
2018-02-25T05:50:32.661Z,99.90
2018-02-25T05:52:58.895Z,99.90
2018-02-25T05:55:25.121Z,99.90
2018-02-25T05:57:51.496Z,99.90
2018-02-25T06:00:17.763Z,99.90
2018-02-25T06:02:44.675Z,99.90
2018-02-25T06:05:10.954Z,99.90
2018-02-25T06:07:37.361Z,99.90
2018-02-25T06:10:04.446Z,99.90
2018-02-25T06:12:30.667Z,99.90
2018-02-25T06:14:56.927Z,99.90
2018-02-25T06:17:23.106Z,99.90
2018-02-25T06:19:49.314Z,99.90
2018-02-25T06:22:15.711Z,99.90
2018-02-25T06:24:42.058Z,99.90
2018-02-25T06:27:08.974Z,99.90
2018-02-25T06:29:35.290Z,99.90
2018-02-25T06:32:01.508Z,99.90
2018-02-25T06:34:27.750Z,99.90
2018-02-25T06:36:54.021Z,99.90
2018-02-25T06:39:20.959Z,99.90
2018-02-25T06:41:47.914Z,99.90
2018-02-25T06:44:15.134Z,99.90
2018-02-25T06:46:41.505Z,99.90
2018-02-25T06:49:07.984Z,99.90
2018-02-25T06:51:34.403Z,99.90
2018-02-25T06:54:00.790Z,99.90
2018-02-25T06:56:27.112Z,99.90
2018-02-25T06:58:54.040Z,99.90
2018-02-25T07:01:21.048Z,99.90
2018-02-25T07:03:47.321Z,99.90
2018-02-25T07:06:14.578Z,99.90
2018-02-25T07:08:41.609Z,99.90
2018-02-25T07:11:09.252Z,99.90
2018-02-25T07:13:35.461Z,99.90
2018-02-25T07:16:01.682Z,99.90
2018-02-25T07:18:28.173Z,99.90
2018-02-25T07:20:54.446Z,99.90
2018-02-25T07:23:20.866Z,99.90
2018-02-25T07:25:47.308Z,99.90
2018-02-25T07:28:13.557Z,99.90
2018-02-25T07:30:40.668Z,99.90
2018-02-25T07:33:06.940Z,99.90
2018-02-25T07:35:33.935Z,99.90
2018-02-25T07:38:00.239Z,99.90
2018-02-25T07:40:26.393Z,99.90
2018-02-25T07:42:52.684Z,99.90
2018-02-25T07:45:19.659Z,99.90
2018-02-25T07:47:45.905Z,99.90
2018-02-25T07:50:12.129Z,99.90
2018-02-25T07:52:38.407Z,99.90
2018-02-25T07:55:05.744Z,99.90
2018-02-25T07:57:32.744Z,99.90
2018-02-25T07:59:59.034Z,99.90
2018-02-25T08:02:25.328Z,99.90
2018-02-25T08:04:51.659Z,99.90
2018-02-25T08:07:18.023Z,99.90
2018-02-25T08:09:44.182Z,99.90
2018-02-25T08:12:10.533Z,99.90
2018-02-25T08:14:37.257Z,99.90
2018-02-25T08:17:03.590Z,99.90
2018-02-25T08:19:29.816Z,99.90
2018-02-25T08:21:56.062Z,99.90
2018-02-25T08:24:23.898Z,99.90
2018-02-25T08:26:50.127Z,99.90
2018-02-25T08:29:16.478Z,99.90
2018-02-25T08:31:42.694Z,99.90
2018-02-25T08:34:09.014Z,99.90
2018-02-25T08:36:35.324Z,99.90
2018-02-25T08:39:01.567Z,99.90
2018-02-25T08:41:27.977Z,99.90
2018-02-25T08:43:54.762Z,99.90
2018-02-25T08:46:21.357Z,99.90
2018-02-25T08:48:47.643Z,99.90
2018-02-25T08:51:13.840Z,99.90
2018-02-25T08:53:40.158Z,99.90
2018-02-25T08:56:06.440Z,99.20
2018-02-25T08:58:32.787Z,99.50
2018-02-25T09:00:59.100Z,99.20
2018-02-25T09:03:25.361Z,99.70
2018-02-25T09:05:51.743Z,99.10
2018-02-25T09:08:17.990Z,99.00
2018-02-25T09:10:44.613Z,99.40
2018-02-25T09:13:11.020Z,98.40
2018-02-25T09:15:38.241Z,97.80
2018-02-25T09:18:04.630Z,97.80
2018-02-25T09:20:31.940Z,97.80
2018-02-25T09:22:58.264Z,96.80
2018-02-25T09:25:24.568Z,96.90
2018-02-25T09:27:50.812Z,97.10
2018-02-25T09:30:18.734Z,98.10
2018-02-25T09:32:44.977Z,97.80
2018-02-25T09:35:18.442Z,97.50
2018-02-25T09:37:44.765Z,97.00
2018-02-25T09:40:11.874Z,98.10
2018-02-25T09:42:38.195Z,98.10
2018-02-25T09:45:04.712Z,96.50
2018-02-25T09:47:31.016Z,96.70
2018-02-25T09:49:57.156Z,96.10
2018-02-25T09:52:23.513Z,95.30
2018-02-25T09:54:49.842Z,94.80
2018-02-25T09:57:16.092Z,95.40
2018-02-25T09:59:42.304Z,95.20
2018-02-25T10:02:08.721Z,95.00
2018-02-25T10:04:35.116Z,95.20
2018-02-25T10:07:01.706Z,94.50
2018-02-25T10:09:28.948Z,94.70
2018-02-25T10:11:55.385Z,94.80
2018-02-25T10:14:22.541Z,94.40
2018-02-25T10:16:49.668Z,94.30
2018-02-25T10:19:16.067Z,94.20
2018-02-25T10:21:42.249Z,94.80
2018-02-25T10:24:16.230Z,94.00
2018-02-25T10:26:42.555Z,94.00
2018-02-25T10:29:08.820Z,93.60
2018-02-25T10:31:35.741Z,93.00
2018-02-25T10:34:03.304Z,92.70
2018-02-25T10:36:30.330Z,92.70
2018-02-25T10:38:56.706Z,92.60
2018-02-25T10:41:23.715Z,92.80
2018-02-25T10:43:51.468Z,93.40
2018-02-25T10:46:17.771Z,93.40
2018-02-25T10:48:44.127Z,92.50
2018-02-25T10:51:10.397Z,92.50
2018-02-25T10:53:36.796Z,92.10
2018-02-25T10:56:04.786Z,94.00
2018-02-25T10:58:31.870Z,94.20
2018-02-25T11:01:04.374Z,94.10
2018-02-25T11:03:31.625Z,93.70
2018-02-25T11:05:57.900Z,94.50
2018-02-25T11:08:24.224Z,92.60
2018-02-25T11:10:50.506Z,92.00
2018-02-25T11:13:17.202Z,93.40
2018-02-25T11:15:43.524Z,92.00
2018-02-25T11:18:09.916Z,90.40
2018-02-25T11:20:36.152Z,91.80
2018-02-25T11:23:02.562Z,90.70
2018-02-25T11:25:29.309Z,90.00
2018-02-25T11:27:55.550Z,90.10
2018-02-25T11:30:21.919Z,85.20
2018-02-25T11:32:48.348Z,82.30
2018-02-25T11:35:14.660Z,82.70
2018-02-25T11:37:41.726Z,86.90
2018-02-25T11:40:08.697Z,86.80
2018-02-25T11:42:35.042Z,82.60
2018-02-25T11:45:02.286Z,82.90
2018-02-25T11:47:28.619Z,82.70
2018-02-25T11:49:54.956Z,72.10
2018-02-25T11:52:21.304Z,80.80
2018-02-25T11:54:48.417Z,79.60
2018-02-25T11:57:14.946Z,79.70
2018-02-25T11:59:42.180Z,76.80
2018-02-25T12:02:08.480Z,77.00
2018-02-25T12:04:34.859Z,80.00
2018-02-25T12:07:01.214Z,76.70
2018-02-25T12:09:28.342Z,82.60
2018-02-25T12:11:54.664Z,82.60
2018-02-25T12:14:21.713Z,81.30
2018-02-25T12:16:48.045Z,77.70
2018-02-25T12:19:14.340Z,72.80
2018-02-25T12:21:41.620Z,70.70
2018-02-25T12:24:07.922Z,69.60
2018-02-25T12:26:34.337Z,68.60
2018-02-25T12:29:00.923Z,66.40
2018-02-25T12:31:27.209Z,58.20
2018-02-25T12:33:53.945Z,61.30
2018-02-25T12:36:20.314Z,62.00
2018-02-25T12:38:46.570Z,63.80
2018-02-25T12:41:13.522Z,66.40
2018-02-25T12:43:41.447Z,64.00
2018-02-25T12:46:07.679Z,65.00
2018-02-25T12:48:33.866Z,69.90
2018-02-25T12:51:00.134Z,62.90
2018-02-25T12:53:26.386Z,64.60
2018-02-25T12:55:53.433Z,61.10
2018-02-25T12:58:20.402Z,62.50
2018-02-25T13:00:46.876Z,62.30
2018-02-25T13:03:13.239Z,53.50
2018-02-25T13:05:40.226Z,58.70
2018-02-25T13:08:06.579Z,58.20
2018-02-25T13:10:32.975Z,57.80
2018-02-25T13:12:59.193Z,53.70
2018-02-25T13:15:25.446Z,55.30
2018-02-25T13:17:51.733Z,53.00
2018-02-25T13:20:18.704Z,49.90
2018-02-25T13:22:45.059Z,49.80
2018-02-25T13:25:11.357Z,46.90
2018-02-25T13:27:37.795Z,48.90
2018-02-25T13:30:04.019Z,47.80
2018-02-25T13:32:30.274Z,51.10
2018-02-25T13:34:56.650Z,46.50
2018-02-25T13:37:23.717Z,49.60
2018-02-25T13:39:49.960Z,49.60
2018-02-25T13:42:16.176Z,51.00
2018-02-25T13:44:42.455Z,50.10
2018-02-25T13:47:09.413Z,48.30
2018-02-25T13:49:36.442Z,47.00
2018-02-25T13:52:03.572Z,44.70
2018-02-25T13:54:30.048Z,45.30
2018-02-25T13:56:56.432Z,48.40
2018-02-25T13:59:22.876Z,49.30
2018-02-25T14:01:50.137Z,47.90
2018-02-25T14:04:17.376Z,44.10
2018-02-25T14:06:43.647Z,44.30
2018-02-25T14:09:09.996Z,43.50
2018-02-25T14:11:36.354Z,46.30
2018-02-25T14:17:00.075Z,44.80
2018-02-25T14:19:27.205Z,44.50
2018-02-25T14:21:53.828Z,44.70
2018-02-25T14:24:20.148Z,43.70
2018-02-25T14:26:46.563Z,44.10
2018-02-25T14:29:12.968Z,48.60
2018-02-25T14:31:39.321Z,45.40
2018-02-25T14:34:05.676Z,47.50
2018-02-25T14:36:31.996Z,44.30
2018-02-25T14:38:58.262Z,44.70
2018-02-25T14:41:25.380Z,47.90
2018-02-25T14:43:51.691Z,47.10
2018-02-25T14:46:17.954Z,44.20
2018-02-25T14:48:44.462Z,44.60
2018-02-25T14:51:10.641Z,41.60
2018-02-25T14:53:36.943Z,44.00
2018-02-25T14:56:03.284Z,43.90
2018-02-25T14:58:30.266Z,45.90
2018-02-25T15:00:56.608Z,45.90
2018-02-25T15:03:22.899Z,45.00
2018-02-25T15:05:49.262Z,44.00
2018-02-25T15:08:15.552Z,42.10
2018-02-25T15:10:41.934Z,43.90
2018-02-25T15:13:08.325Z,45.90
2018-02-25T15:15:34.902Z,47.30
2018-02-25T15:18:01.148Z,46.80
2018-02-25T15:20:28.149Z,46.60
2018-02-25T15:22:54.414Z,46.60
2018-02-25T15:25:20.600Z,47.40
2018-02-25T15:27:46.859Z,50.30
2018-02-25T15:30:13.116Z,48.70
2018-02-25T15:32:40.227Z,47.70
2018-02-25T15:35:06.517Z,47.70
2018-02-25T15:37:33.833Z,48.40
2018-02-25T15:40:00.785Z,50.00
2018-02-25T15:42:27.770Z,50.90
2018-02-25T15:44:54.072Z,50.90
2018-02-25T15:47:20.329Z,49.70
2018-02-25T15:50:01.543Z,50.90
2018-02-25T15:52:27.902Z,50.80
2018-02-25T15:54:54.917Z,51.40
2018-02-25T15:57:21.333Z,51.30
2018-02-25T15:59:47.510Z,50.70
2018-02-25T16:02:13.857Z,51.90
2018-02-25T16:04:40.116Z,55.10
2018-02-25T16:07:06.445Z,55.80
2018-02-25T16:09:32.870Z,53.40
2018-02-25T16:11:59.261Z,52.90
2018-02-25T16:14:25.494Z,55.30
2018-02-25T16:16:51.860Z,53.00
2018-02-25T16:19:18.196Z,54.30
2018-02-25T16:21:44.470Z,53.50
2018-02-25T16:24:10.789Z,57.00
2018-02-25T16:26:37.776Z,56.10
2018-02-25T16:29:04.148Z,56.10
2018-02-25T16:31:31.114Z,56.10
2018-02-25T16:33:57.493Z,56.00
2018-02-25T16:36:24.745Z,56.40
2018-02-25T16:38:51.073Z,58.80
2018-02-25T16:41:24.331Z,57.80
2018-02-25T16:43:50.550Z,55.90
2018-02-25T16:46:16.857Z,58.30
2018-02-25T16:48:43.967Z,56.90
2018-02-25T16:51:10.308Z,56.00
2018-02-25T16:53:36.592Z,55.60
2018-02-25T16:56:02.879Z,59.10
2018-02-25T16:58:30.006Z,58.00
2018-02-25T17:00:57.332Z,65.00
2018-02-25T17:03:23.650Z,65.20
2018-02-25T17:05:49.941Z,60.00
2018-02-25T17:08:16.964Z,59.20
2018-02-25T17:10:43.222Z,59.10
2018-02-25T17:13:09.773Z,62.00
2018-02-25T17:15:36.143Z,64.40
2018-02-25T17:18:02.471Z,64.40
2018-02-25T17:20:28.747Z,65.80
2018-02-25T17:22:54.935Z,68.40
2018-02-25T17:25:21.237Z,69.40
2018-02-25T17:27:47.420Z,69.40
2018-02-25T17:30:14.774Z,75.80
2018-02-25T17:32:41.769Z,77.10
2018-02-25T17:35:08.214Z,77.10
2018-02-25T17:37:34.598Z,79.90
2018-02-25T17:40:01.056Z,76.70
2018-02-25T17:42:27.348Z,78.00
2018-02-25T17:44:53.579Z,80.80
2018-02-25T17:47:20.069Z,81.60
2018-02-25T17:49:47.466Z,84.00
2018-02-25T17:52:13.737Z,83.60
2018-02-25T17:54:40.134Z,85.30
2018-02-25T17:57:06.365Z,84.30
2018-02-25T17:59:32.743Z,85.00
2018-02-25T18:02:00.023Z,84.80
2018-02-25T18:04:26.257Z,84.80
2018-02-25T18:06:52.705Z,86.40
2018-02-25T18:09:19.070Z,86.20
2018-02-25T18:11:46.114Z,88.30
2018-02-25T18:14:13.062Z,89.40
2018-02-25T18:16:39.514Z,89.40
2018-02-25T18:19:06.550Z,90.10
2018-02-25T18:21:33.731Z,89.40
2018-02-25T18:23:59.974Z,89.80
2018-02-25T18:26:26.163Z,90.70
2018-02-25T18:28:53.220Z,90.30
2018-02-25T18:31:20.269Z,90.40
2018-02-25T18:33:47.379Z,90.80
2018-02-25T18:36:13.709Z,90.80
2018-02-25T18:38:40.067Z,91.10
2018-02-25T18:41:07.133Z,90.80
2018-02-25T18:43:33.435Z,90.80
2018-02-25T18:46:00.388Z,91.20
2018-02-25T18:48:27.446Z,91.40
2018-02-25T18:50:53.665Z,91.40
2018-02-25T18:53:20.685Z,92.00
2018-02-25T18:55:46.906Z,92.00
2018-02-25T18:58:14.108Z,92.60
2018-02-25T19:00:40.538Z,92.60
2018-02-25T19:03:06.945Z,93.30
2018-02-25T19:05:34.078Z,94.30
2018-02-25T19:08:01.107Z,95.00
2018-02-25T19:10:27.433Z,95.00
2018-02-25T19:12:53.810Z,95.60
2018-02-25T19:15:20.266Z,95.90
2018-02-25T19:17:46.800Z,96.40
2018-02-25T19:20:13.117Z,96.90
2018-02-25T19:22:39.326Z,97.60
2018-02-25T19:25:05.546Z,97.40
2018-02-25T19:27:31.945Z,97.50
2018-02-25T19:29:58.314Z,97.90
2018-02-25T19:32:25.416Z,98.00
2018-02-25T19:34:51.620Z,98.50
2018-02-25T19:37:24.891Z,98.40
2018-02-25T19:39:57.338Z,98.60
2018-02-25T19:42:23.600Z,98.50
2018-02-25T19:44:50.028Z,98.70
2018-02-25T19:47:17.653Z,98.50
2018-02-25T19:49:44.602Z,99.00
2018-02-25T19:52:11.045Z,98.90
2018-02-25T19:54:37.435Z,98.70
2018-02-25T19:57:04.639Z,98.80
2018-02-25T19:59:31.056Z,99.10
2018-02-25T20:01:57.307Z,99.50
2018-02-25T20:04:23.663Z,99.90
2018-02-25T20:06:50.064Z,99.90
2018-02-25T20:09:16.719Z,99.70
2018-02-25T20:11:58.206Z,99.60
2018-02-25T20:14:24.551Z,99.90
2018-02-25T20:16:52.228Z,99.90
2018-02-25T20:19:19.207Z,99.90
2018-02-25T20:21:45.558Z,99.90
2018-02-25T20:24:11.922Z,99.90
2018-02-25T20:26:38.850Z,99.90
2018-02-25T20:29:12.248Z,99.90
2018-02-25T20:31:38.686Z,99.90
2018-02-25T20:34:05.854Z,99.90
2018-02-25T20:36:32.876Z,99.90
2018-02-25T20:38:59.116Z,99.90
2018-02-25T20:41:26.072Z,99.90
2018-02-25T20:43:53.487Z,99.90
2018-02-25T20:46:19.716Z,99.90
2018-02-25T20:48:46.212Z,99.90
2018-02-25T20:51:12.471Z,99.90
2018-02-25T20:53:38.684Z,99.90
2018-02-25T20:56:05.956Z,99.90
2018-02-25T20:58:32.214Z,99.90
2018-02-25T21:00:59.184Z,99.90
2018-02-25T21:03:25.502Z,99.90
2018-02-25T21:05:52.107Z,99.90
2018-02-25T21:08:19.133Z,99.90
2018-02-25T21:10:45.513Z,99.90
2018-02-25T21:13:11.818Z,99.90
2018-02-25T21:15:38.758Z,99.90
2018-02-25T21:18:05.035Z,99.90
2018-02-25T21:20:31.258Z,99.90
2018-02-25T21:22:57.488Z,99.90
2018-02-25T21:25:23.709Z,99.90
2018-02-25T21:27:49.891Z,99.90
2018-02-25T21:30:16.935Z,99.90
2018-02-25T21:32:43.946Z,99.90
2018-02-25T21:35:10.283Z,99.90
2018-02-25T21:37:36.553Z,99.90
2018-02-25T21:40:02.758Z,99.90
2018-02-25T21:42:28.976Z,99.90
2018-02-25T21:44:55.192Z,99.90
2018-02-25T21:47:21.551Z,99.90
2018-02-25T21:49:48.499Z,99.90
2018-02-25T21:52:15.493Z,99.90
2018-02-25T21:54:47.871Z,99.90
2018-02-25T21:57:20.253Z,99.90
2018-02-25T22:02:54.376Z,99.90
2018-02-25T22:05:20.744Z,99.90
2018-02-25T22:07:47.036Z,99.90
2018-02-25T22:10:13.466Z,99.90
2018-02-25T22:12:39.803Z,99.90
2018-02-25T22:15:07.138Z,99.90
2018-02-25T22:17:33.329Z,99.90
2018-02-25T22:19:59.546Z,99.90
2018-02-25T22:22:25.863Z,99.90
2018-02-25T22:24:52.769Z,99.90
2018-02-25T22:27:19.090Z,99.90
2018-02-25T22:29:45.338Z,99.90
2018-02-25T22:32:11.580Z,99.90
2018-02-25T22:34:37.852Z,99.90
2018-02-25T22:37:04.210Z,99.90
2018-02-25T22:39:31.297Z,99.90
2018-02-25T22:41:57.589Z,99.90
2018-02-25T22:44:23.858Z,99.90
2018-02-25T22:46:50.115Z,99.90
2018-02-25T22:49:16.342Z,99.90
2018-02-25T22:51:42.524Z,99.90
2018-02-25T22:54:09.815Z,99.90
2018-02-25T22:56:36.119Z,99.90
2018-02-25T22:59:02.373Z,99.90
2018-02-25T23:01:28.666Z,99.90
2018-02-25T23:03:54.973Z,99.90
2018-02-25T23:06:22.103Z,99.90
2018-02-25T23:08:48.454Z,99.90
2018-02-25T23:11:15.643Z,99.90
2018-02-25T23:13:41.945Z,99.90
2018-02-25T23:16:08.646Z,99.90
2018-02-25T23:18:35.004Z,99.90
2018-02-25T23:21:02.075Z,99.90
2018-02-25T23:23:28.394Z,99.90
2018-02-25T23:25:54.800Z,99.90
2018-02-25T23:28:21.031Z,99.90
2018-02-25T23:30:47.999Z,99.90
2018-02-25T23:33:14.200Z,99.90
2018-02-25T23:35:41.094Z,99.90
2018-02-25T23:38:07.411Z,99.90
2018-02-25T23:40:33.624Z,99.90
2018-02-25T23:43:00.025Z,99.90
2018-02-25T23:45:26.280Z,99.90
2018-02-25T23:47:53.296Z,99.90
2018-02-25T23:50:21.369Z,99.90
2018-02-25T23:52:48.367Z,99.90
2018-02-25T23:55:14.519Z,99.90
2018-02-25T23:57:41.580Z,99.90
